CPA927 ZGHA-VHHH
Flight info
| Callsign | CPA927 |
|---|---|
| Flight time | N/A |
| Altitude | 34000 |
| Route | UBM9X/36L UBMOG W615 IDAXI R473 WYN W18 NLG W23 ZUH R473 SIERA SIER7C/07L |
| Aircraft | A359/H-SDE2E3GHIJ1J3J4J5LM1ORWXYZ/LB1D1 |
Departure
| Time | 2026-05-04 12:03 |
|---|---|
| Airport | Changsha Huanghua International Airport (ZGHA) |
Arrival
| Time | N/A |
|---|---|
| Airport | Hong Kong International Airport (VHHH) |
| Time | Latitude | Longitude | Altitude | Speed | Heading |
|---|---|---|---|---|---|
| 2026-05-04 11:42 | 28.19615 | 113.21549 | 224 ft | 0 kts | 260° |
| 2026-05-04 11:48 | 28.19616 | 113.21556 | 225 ft | 2 kts | 259° |
| 2026-05-04 11:48 | 28.19618 | 113.21571 | 225 ft | 2 kts | 259° |
| 2026-05-04 11:48 | 28.19621 | 113.21584 | 225 ft | 0 kts | 260° |
| 2026-05-04 11:49 | 28.19624 | 113.21600 | 225 ft | 2 kts | 249° |
| 2026-05-04 11:49 | 28.19630 | 113.21614 | 225 ft | 2 kts | 232° |
| 2026-05-04 11:49 | 28.19640 | 113.21626 | 225 ft | 2 kts | 219° |
| 2026-05-04 11:49 | 28.19652 | 113.21635 | 225 ft | 2 kts | 205° |
| 2026-05-04 11:50 | 28.19666 | 113.21641 | 225 ft | 2 kts | 191° |
| 2026-05-04 11:50 | 28.19680 | 113.21643 | 225 ft | 1 kts | 178° |
| 2026-05-04 11:50 | 28.19684 | 113.21643 | 225 ft | 0 kts | 175° |
| 2026-05-04 11:52 | 28.19682 | 113.21643 | 224 ft | 1 kts | 175° |
| 2026-05-04 11:52 | 28.19649 | 113.21645 | 224 ft | 8 kts | 177° |
| 2026-05-04 11:53 | 28.19574 | 113.21648 | 225 ft | 11 kts | 177° |
| 2026-05-04 11:53 | 28.19482 | 113.21654 | 224 ft | 16 kts | 176° |
| 2026-05-04 11:53 | 28.19384 | 113.21652 | 224 ft | 15 kts | 182° |
| 2026-05-04 11:53 | 28.19265 | 113.21657 | 225 ft | 17 kts | 177° |
| 2026-05-04 11:55 | 28.18557 | 113.21809 | 225 ft | 20 kts | 177° |
| 2026-05-04 11:55 | 28.18438 | 113.21817 | 224 ft | 13 kts | 176° |
| 2026-05-04 11:56 | 28.18336 | 113.21824 | 225 ft | 16 kts | 177° |
| 2026-05-04 11:56 | 28.18214 | 113.21832 | 225 ft | 16 kts | 176° |
| 2026-05-04 11:56 | 28.18096 | 113.21838 | 224 ft | 15 kts | 177° |
| 2026-05-04 11:56 | 28.17985 | 113.21845 | 225 ft | 19 kts | 176° |
| 2026-05-04 11:57 | 28.17904 | 113.21851 | 224 ft | 2 kts | 177° |
| 2026-05-04 11:57 | 28.17892 | 113.21851 | 224 ft | 0 kts | 177° |
| 2026-05-04 11:58 | 28.17884 | 113.21851 | 225 ft | 4 kts | 177° |
| 2026-05-04 11:58 | 28.17840 | 113.21854 | 225 ft | 4 kts | 177° |
| 2026-05-04 11:58 | 28.17814 | 113.21856 | 224 ft | 5 kts | 175° |
| 2026-05-04 11:59 | 28.17812 | 113.21857 | 225 ft | 0 kts | 175° |
| 2026-05-04 12:00 | 28.17793 | 113.21859 | 225 ft | 6 kts | 168° |
| 2026-05-04 12:00 | 28.17756 | 113.21889 | 225 ft | 6 kts | 123° |
| 2026-05-04 12:00 | 28.17746 | 113.21918 | 225 ft | 0 kts | 98° |
| 2026-05-04 12:02 | 28.18261 | 113.22016 | 225 ft | 92 kts | 356° |
| 2026-05-04 12:03 | 28.19082 | 113.21963 | 225 ft | 151 kts | 356° |
| 2026-05-04 12:03 | 28.20182 | 113.21894 | 549 ft | 171 kts | 356° |
| 2026-05-04 12:03 | 28.21292 | 113.21838 | 1386 ft | 161 kts | 356° |
| 2026-05-04 12:03 | 28.22395 | 113.21782 | 2034 ft | 161 kts | 356° |
| 2026-05-04 12:04 | 28.23501 | 113.21720 | 2387 ft | 172 kts | 356° |
| 2026-05-04 12:04 | 28.24717 | 113.21648 | 2713 ft | 186 kts | 356° |
| 2026-05-04 12:04 | 28.26028 | 113.21568 | 3051 ft | 204 kts | 356° |
| 2026-05-04 12:04 | 28.27474 | 113.21480 | 3505 ft | 218 kts | 356° |
| 2026-05-04 12:05 | 28.28993 | 113.21388 | 4041 ft | 224 kts | 355° |
| 2026-05-04 12:05 | 28.30514 | 113.21307 | 4652 ft | 229 kts | 1° |
| 2026-05-04 12:05 | 28.32020 | 113.21802 | 5147 ft | 244 kts | 36° |
| 2026-05-04 12:05 | 28.33039 | 113.23272 | 5588 ft | 262 kts | 70° |
| 2026-05-04 12:06 | 28.33170 | 113.25316 | 6105 ft | 278 kts | 103° |
| 2026-05-04 12:06 | 28.32280 | 113.27156 | 6797 ft | 286 kts | 135° |
| 2026-05-04 12:06 | 28.30623 | 113.28280 | 7640 ft | 288 kts | 160° |
| 2026-05-04 12:06 | 28.28761 | 113.28902 | 8465 ft | 292 kts | 165° |
| 2026-05-04 12:07 | 28.26847 | 113.29469 | 9260 ft | 296 kts | 164° |
| 2026-05-04 12:07 | 28.24934 | 113.30083 | 10060 ft | 299 kts | 162° |
| 2026-05-04 12:07 | 28.22976 | 113.30768 | 10749 ft | 307 kts | 161° |
| 2026-05-04 12:07 | 28.20940 | 113.31529 | 11198 ft | 323 kts | 160° |
| 2026-05-04 12:08 | 28.18836 | 113.32348 | 11611 ft | 339 kts | 160° |
| 2026-05-04 12:08 | 28.16597 | 113.33237 | 12007 ft | 355 kts | 159° |
| 2026-05-04 12:08 | 28.14215 | 113.34195 | 12377 ft | 372 kts | 159° |
| 2026-05-04 12:08 | 28.11765 | 113.35185 | 12708 ft | 388 kts | 159° |
| 2026-05-04 12:09 | 28.09178 | 113.36233 | 13078 ft | 402 kts | 159° |
| 2026-05-04 12:09 | 28.06497 | 113.37321 | 13715 ft | 408 kts | 159° |
| 2026-05-04 12:09 | 28.03836 | 113.38399 | 14433 ft | 411 kts | 159° |
| 2026-05-04 12:09 | 28.01194 | 113.39469 | 15124 ft | 413 kts | 159° |
| 2026-05-04 12:10 | 27.98480 | 113.40567 | 15793 ft | 416 kts | 159° |
| 2026-05-04 12:10 | 27.95740 | 113.41676 | 16445 ft | 419 kts | 159° |
| 2026-05-04 12:10 | 27.92997 | 113.42786 | 17080 ft | 422 kts | 159° |
| 2026-05-04 12:10 | 27.90246 | 113.43898 | 17697 ft | 425 kts | 159° |
| 2026-05-04 12:11 | 27.87819 | 113.44877 | 18226 ft | 427 kts | 159° |
| 2026-05-04 12:11 | 27.84798 | 113.46090 | 18865 ft | 430 kts | 159° |
| 2026-05-04 12:11 | 27.82011 | 113.47209 | 19431 ft | 433 kts | 159° |
| 2026-05-04 12:11 | 27.79169 | 113.48353 | 19996 ft | 435 kts | 159° |
| 2026-05-04 12:12 | 27.76402 | 113.49467 | 20532 ft | 438 kts | 159° |
| 2026-05-04 12:12 | 27.73537 | 113.50620 | 21097 ft | 440 kts | 159° |
| 2026-05-04 12:12 | 27.70664 | 113.51777 | 21636 ft | 442 kts | 159° |
| 2026-05-04 12:12 | 27.67784 | 113.52936 | 22152 ft | 445 kts | 159° |
| 2026-05-04 12:13 | 27.64865 | 113.54110 | 22655 ft | 447 kts | 159° |
| 2026-05-04 12:14 | 27.44139 | 113.62431 | 25726 ft | 465 kts | 160° |
| 2026-05-04 12:15 | 27.41110 | 113.63644 | 26101 ft | 467 kts | 160° |
| 2026-05-04 12:15 | 27.38054 | 113.64869 | 26456 ft | 469 kts | 160° |
| 2026-05-04 12:15 | 27.35104 | 113.66057 | 26788 ft | 472 kts | 161° |
| 2026-05-04 12:15 | 27.32049 | 113.67293 | 27116 ft | 474 kts | 161° |
| 2026-05-04 12:16 | 27.28987 | 113.68527 | 27431 ft | 476 kts | 161° |
| 2026-05-04 12:16 | 27.25838 | 113.69696 | 27748 ft | 478 kts | 164° |
| 2026-05-04 12:16 | 27.22630 | 113.70675 | 28054 ft | 480 kts | 167° |
| 2026-05-04 12:16 | 27.19450 | 113.71432 | 28341 ft | 482 kts | 170° |
| 2026-05-04 12:17 | 27.16152 | 113.72015 | 28630 ft | 484 kts | 172° |
| 2026-05-04 12:17 | 27.12886 | 113.72537 | 28904 ft | 485 kts | 172° |
| 2026-05-04 12:17 | 27.09591 | 113.73057 | 29234 ft | 486 kts | 173° |
| 2026-05-04 12:17 | 27.06424 | 113.73556 | 29623 ft | 485 kts | 173° |
| 2026-05-04 12:18 | 27.03119 | 113.74080 | 30029 ft | 483 kts | 173° |
| 2026-05-04 12:18 | 26.99811 | 113.74612 | 30308 ft | 485 kts | 173° |
| 2026-05-04 12:18 | 26.96462 | 113.75142 | 30434 ft | 491 kts | 173° |
| 2026-05-04 12:18 | 26.93143 | 113.75664 | 30563 ft | 495 kts | 173° |
| 2026-05-04 12:19 | 26.89806 | 113.76188 | 30755 ft | 498 kts | 173° |
| 2026-05-04 12:19 | 26.86734 | 113.76672 | 31027 ft | 499 kts | 173° |
| 2026-05-04 12:19 | 26.83143 | 113.77240 | 31414 ft | 498 kts | 173° |
| 2026-05-04 12:19 | 26.79745 | 113.77780 | 31798 ft | 496 kts | 173° |
| 2026-05-04 12:20 | 26.76349 | 113.78369 | 32169 ft | 495 kts | 171° |
| 2026-05-04 12:20 | 26.72997 | 113.79128 | 32502 ft | 495 kts | 168° |
| 2026-05-04 12:20 | 26.69743 | 113.80055 | 32771 ft | 495 kts | 166° |
| 2026-05-04 12:20 | 26.66486 | 113.81074 | 33016 ft | 496 kts | 165° |
| 2026-05-04 12:21 | 26.63193 | 113.82111 | 33253 ft | 497 kts | 165° |
| 2026-05-04 12:21 | 26.59922 | 113.83140 | 33485 ft | 498 kts | 165° |
| 2026-05-04 12:21 | 26.56610 | 113.84177 | 33715 ft | 498 kts | 165° |
| 2026-05-04 12:21 | 26.53284 | 113.85215 | 33938 ft | 499 kts | 165° |
| 2026-05-04 12:22 | 26.46634 | 113.87252 | 34043 ft | 501 kts | 166° |
| 2026-05-04 12:22 | 26.39973 | 113.89176 | 34048 ft | 501 kts | 166° |
| 2026-05-04 12:23 | 26.33282 | 113.91098 | 34049 ft | 501 kts | 166° |
| 2026-05-04 12:23 | 26.26771 | 113.92973 | 34050 ft | 501 kts | 166° |
| 2026-05-04 12:24 | 26.20180 | 113.94871 | 34050 ft | 501 kts | 166° |
| 2026-05-04 12:24 | 26.13529 | 113.96783 | 34050 ft | 501 kts | 166° |
| 2026-05-04 12:25 | 26.06836 | 113.98704 | 34050 ft | 501 kts | 166° |
| 2026-05-04 12:25 | 26.00255 | 114.00600 | 34050 ft | 501 kts | 166° |
| 2026-05-04 12:26 | 25.93606 | 114.02585 | 34050 ft | 501 kts | 166° |
| 2026-05-04 12:26 | 25.87498 | 114.04411 | 34050 ft | 501 kts | 166° |
| 2026-05-04 12:27 | 25.81402 | 114.06217 | 34053 ft | 501 kts | 166° |
| 2026-05-04 12:28 | 25.66840 | 114.10524 | 34071 ft | 500 kts | 166° |
| 2026-05-04 12:28 | 25.60183 | 114.12491 | 34076 ft | 500 kts | 166° |
| 2026-05-04 12:29 | 25.53469 | 114.14472 | 34077 ft | 500 kts | 166° |
| 2026-05-04 12:29 | 25.46762 | 114.16450 | 34078 ft | 500 kts | 166° |
| 2026-05-04 12:30 | 25.40050 | 114.18426 | 34078 ft | 500 kts | 166° |
| 2026-05-04 12:30 | 25.33345 | 114.20397 | 34078 ft | 500 kts | 166° |
| 2026-05-04 12:31 | 25.26675 | 114.22355 | 34078 ft | 500 kts | 166° |
| 2026-05-04 12:31 | 25.19938 | 114.24313 | 34077 ft | 500 kts | 167° |
| 2026-05-04 12:32 | 25.09618 | 114.25897 | 34076 ft | 499 kts | 179° |
| 2026-05-04 12:33 | 25.02686 | 114.25639 | 34076 ft | 504 kts | 186° |
| 2026-05-04 12:33 | 24.95766 | 114.24415 | 34078 ft | 506 kts | 191° |
| 2026-05-04 12:34 | 24.88926 | 114.22913 | 34078 ft | 506 kts | 191° |
| 2026-05-04 12:34 | 24.82023 | 114.21407 | 34078 ft | 506 kts | 191° |
| 2026-05-04 12:35 | 24.75167 | 114.19919 | 34078 ft | 506 kts | 191° |
| 2026-05-04 12:35 | 24.68294 | 114.18428 | 34078 ft | 506 kts | 191° |
| 2026-05-04 12:36 | 24.61482 | 114.16952 | 34078 ft | 506 kts | 191° |
| 2026-05-04 12:36 | 24.54622 | 114.15467 | 34078 ft | 506 kts | 191° |
| 2026-05-04 12:37 | 24.47731 | 114.13976 | 34078 ft | 506 kts | 191° |